createdAt,value
2023-11-01T00:01:43.942Z,100076.62
2023-11-01T00:04:11.526Z,100080.34
2023-11-01T00:06:38.698Z,100077.19
2023-11-01T00:09:05.910Z,100074.59
2023-11-01T00:11:35.168Z,100077.41
2023-11-01T00:14:03.779Z,100082.25
2023-11-01T00:16:31.297Z,100083.91
2023-11-01T00:18:59.095Z,100079.09
2023-11-01T00:21:26.257Z,100080.03
2023-11-01T00:23:53.437Z,100084.97
2023-11-01T00:26:24.702Z,100087.84
2023-11-01T00:28:53.829Z,100081.91
2023-11-01T00:31:21.246Z,100093.97
2023-11-01T00:33:48.465Z,100095.06
2023-11-01T00:36:15.965Z,100100.47
2023-11-01T00:38:43.519Z,100097.03
2023-11-01T00:41:10.710Z,100096.72
2023-11-01T00:43:38.097Z,100103.53
2023-11-01T00:46:06.387Z,100107.69
2023-11-01T00:48:33.519Z,100098.41
2023-11-01T00:51:00.755Z,100098.22
2023-11-01T00:53:28.329Z,100107.78
2023-11-01T00:55:55.489Z,100112.41
2023-11-01T00:58:23.891Z,100108.25
2023-11-01T01:00:51.902Z,100121.41
2023-11-01T01:03:19.230Z,100125.88
2023-11-01T01:05:46.453Z,100131.25
2023-11-01T01:08:13.931Z,100139.25
2023-11-01T01:10:44.140Z,100131.34
2023-11-01T01:13:11.329Z,100135.91
2023-11-01T01:15:39.756Z,100138.16
2023-11-01T01:18:07.480Z,100136.66
2023-11-01T01:20:35.293Z,100135.03
2023-11-01T01:23:04.109Z,100127.19
2023-11-01T01:25:31.270Z,100136.09
2023-11-01T01:27:58.429Z,100144.06
2023-11-01T01:30:25.844Z,100151.56
2023-11-01T01:32:53.019Z,100152.69
2023-11-01T01:35:20.260Z,100145.53
2023-11-01T01:37:47.713Z,100148.06
2023-11-01T01:40:14.978Z,100150.28
2023-11-01T01:42:42.687Z,100151.59
2023-11-01T01:45:10.393Z,100151.03
2023-11-01T01:47:37.835Z,100157.06
2023-11-01T01:50:05.652Z,100156.88
2023-11-01T01:52:33.204Z,100154.94
2023-11-01T01:55:00.422Z,100162.00
2023-11-01T01:57:29.774Z,100164.88
2023-11-01T01:59:58.263Z,100164.59
2023-11-01T02:02:25.743Z,100169.44
2023-11-01T02:04:53.783Z,100172.47
2023-11-01T02:07:21.033Z,100173.31
2023-11-01T02:09:50.402Z,100180.53
2023-11-01T02:12:18.288Z,100177.25
2023-11-01T02:14:46.310Z,100181.12
2023-11-01T02:17:13.506Z,100193.28
2023-11-01T02:19:41.742Z,100189.59
2023-11-01T02:22:09.081Z,100195.25
2023-11-01T02:24:36.717Z,100193.75
2023-11-01T02:27:05.161Z,100188.66
2023-11-01T02:29:32.915Z,100198.84
2023-11-01T02:32:04.503Z,100207.00
2023-11-01T02:34:49.941Z,100197.13
2023-11-01T02:37:17.525Z,100202.53
2023-11-01T02:39:44.972Z,100209.47
2023-11-01T02:42:12.127Z,100214.81
2023-11-01T02:44:40.571Z,100208.22
2023-11-01T02:47:07.988Z,100214.31
2023-11-01T02:49:35.138Z,100209.72
2023-11-01T02:52:02.237Z,100217.44
2023-11-01T02:54:29.650Z,100228.56
2023-11-01T02:57:00.772Z,100223.72
2023-11-01T02:59:28.452Z,100223.63
2023-11-01T03:01:57.251Z,100237.72
2023-11-01T03:04:24.490Z,100237.53
2023-11-01T03:06:51.660Z,100243.53
2023-11-01T03:09:19.156Z,100237.28
2023-11-01T03:11:46.301Z,100233.50
2023-11-01T03:14:13.469Z,100230.16
2023-11-01T03:16:42.129Z,100237.88
2023-11-01T03:19:11.607Z,100234.50
2023-11-01T03:21:41.824Z,100237.03
2023-11-01T03:24:12.439Z,100237.53
2023-11-01T03:26:41.345Z,100242.72
2023-11-01T03:29:08.828Z,100251.91
2023-11-01T03:31:36.478Z,100251.66
2023-11-01T03:34:03.637Z,100250.03
2023-11-01T03:36:31.415Z,100247.09
2023-11-01T03:39:00.153Z,100247.66
2023-11-01T03:41:27.309Z,100261.22
2023-11-01T03:43:55.618Z,100247.56
2023-11-01T03:46:23.416Z,100248.13
2023-11-01T03:48:50.639Z,100246.09
2023-11-01T03:51:19.016Z,100252.25
2023-11-01T03:53:46.213Z,100261.91
2023-11-01T03:56:14.108Z,100261.16
2023-11-01T03:58:41.574Z,100257.66
2023-11-01T04:01:09.274Z,100252.88
2023-11-01T04:03:36.894Z,100259.19
2023-11-01T04:06:04.414Z,100267.63
2023-11-01T04:08:31.609Z,100270.03
2023-11-01T04:10:59.566Z,100266.97
2023-11-01T04:13:26.793Z,100277.91
2023-11-01T04:15:55.238Z,100280.09
2023-11-01T04:18:22.757Z,100271.53
2023-11-01T04:20:49.961Z,100274.22
2023-11-01T04:23:17.672Z,100271.13
2023-11-01T04:25:45.288Z,100271.03
2023-11-01T04:28:12.423Z,100269.12
2023-11-01T04:30:40.281Z,100280.53
2023-11-01T04:33:08.029Z,100282.06
2023-11-01T04:35:36.119Z,100277.34
2023-11-01T04:38:03.714Z,100273.09
2023-11-01T04:40:33.065Z,100267.50
2023-11-01T04:43:00.238Z,100267.06
2023-11-01T04:45:29.215Z,100260.59
2023-11-01T04:47:56.725Z,100258.94
2023-11-01T04:50:24.165Z,100261.63
2023-11-01T04:52:51.843Z,100269.41
2023-11-01T04:55:19.266Z,100273.00
2023-11-01T04:57:46.413Z,100273.34
2023-11-01T05:00:17.311Z,100281.22
2023-11-01T05:02:48.863Z,100266.31
2023-11-01T05:05:16.246Z,100268.84
2023-11-01T05:07:43.953Z,100270.84
2023-11-01T05:10:14.131Z,100279.78
2023-11-01T05:12:42.215Z,100280.28
2023-11-01T05:15:10.084Z,100278.72
2023-11-01T05:17:37.573Z,100282.47
2023-11-01T05:20:05.287Z,100288.06
2023-11-01T05:22:33.313Z,100289.69
2023-11-01T05:25:01.382Z,100293.94
2023-11-01T05:27:28.688Z,100297.75
2023-11-01T05:29:56.365Z,100296.31
2023-11-01T05:32:23.788Z,100307.78
2023-11-01T05:34:50.919Z,100309.69
2023-11-01T05:37:20.955Z,100318.69
2023-11-01T05:39:48.347Z,100326.53
2023-11-01T05:42:16.047Z,100335.91
2023-11-01T05:44:43.773Z,100328.56
2023-11-01T05:47:18.783Z,100323.47
2023-11-01T05:49:46.553Z,100336.28
2023-11-01T05:52:23.740Z,100337.25
2023-11-01T05:54:51.416Z,100345.22
2023-11-01T05:57:18.819Z,100337.22
2023-11-01T05:59:48.208Z,100341.38
2023-11-01T06:02:15.479Z,100356.63
2023-11-01T06:04:42.975Z,100350.75
2023-11-01T06:07:10.067Z,100361.06
2023-11-01T06:09:37.197Z,100371.03
2023-11-01T06:12:06.885Z,100366.97
2023-11-01T06:14:34.127Z,100374.28
2023-11-01T06:17:03.537Z,100367.03
2023-11-01T06:19:33.002Z,100377.91
2023-11-01T06:22:00.279Z,100368.56
2023-11-01T06:24:27.970Z,100388.00
2023-11-01T06:26:58.535Z,100388.69
2023-11-01T06:29:28.617Z,100386.84
2023-11-01T06:31:56.962Z,100383.31
2023-11-01T06:34:24.241Z,100374.62
2023-11-01T06:36:55.905Z,100376.88
2023-11-01T06:39:25.060Z,100380.31
2023-11-01T06:41:54.694Z,100381.66
2023-11-01T06:44:21.880Z,100379.66
2023-11-01T06:46:51.713Z,100364.69
2023-11-01T06:49:18.883Z,100357.31
2023-11-01T06:51:47.469Z,100341.31
2023-11-01T06:54:15.003Z,100341.06
2023-11-01T06:56:46.406Z,100339.47
2023-11-01T06:59:14.604Z,100346.34
2023-11-01T07:01:44.866Z,100347.25
2023-11-01T07:04:15.726Z,100347.50
2023-11-01T07:06:43.964Z,100347.16
2023-11-01T07:09:12.022Z,100349.56
2023-11-01T07:11:41.125Z,100351.59
2023-11-01T07:14:10.782Z,100352.09
2023-11-01T07:16:42.477Z,100358.87
2023-11-01T07:19:10.615Z,100363.00
2023-11-01T07:21:42.237Z,100362.28
2023-11-01T07:24:09.800Z,100364.16
2023-11-01T07:26:38.113Z,100364.88
2023-11-01T07:29:12.844Z,100356.16
2023-11-01T07:31:41.430Z,100359.13
2023-11-01T07:34:09.568Z,100363.13
2023-11-01T07:36:44.089Z,100368.56
2023-11-01T07:39:11.691Z,100371.50
2023-11-01T07:41:41.144Z,100369.50
2023-11-01T07:44:09.558Z,100367.75
2023-11-01T07:46:38.437Z,100369.09
2023-11-01T07:49:05.578Z,100371.97
2023-11-01T07:51:36.745Z,100371.34
2023-11-01T07:54:04.535Z,100375.06
2023-11-01T07:56:34.862Z,100371.16
2023-11-01T07:59:02.091Z,100378.56
2023-11-01T08:01:37.341Z,100382.72
2023-11-01T08:04:05.162Z,100377.66
2023-11-01T08:06:32.388Z,100371.28
2023-11-01T08:09:00.210Z,100368.50
2023-11-01T08:11:29.503Z,100368.38
2023-11-01T08:13:57.621Z,100370.47
2023-11-01T08:16:28.317Z,100378.94
2023-11-01T08:19:00.542Z,100387.62
2023-11-01T08:21:27.740Z,100395.69
2023-11-01T08:23:54.947Z,100386.91
2023-11-01T08:26:24.374Z,100382.06
2023-11-01T08:28:51.556Z,100377.66
2023-11-01T08:31:20.375Z,100388.78
2023-11-01T08:33:47.911Z,100391.41
2023-11-01T08:36:15.325Z,100391.97
2023-11-01T08:38:43.839Z,100396.59
2023-11-01T08:41:15.930Z,100395.69
2023-11-01T08:43:45.316Z,100386.53
2023-11-01T08:46:13.988Z,100381.91
2023-11-01T08:48:41.777Z,100393.56
2023-11-01T08:51:11.720Z,100395.97
2023-11-01T08:53:40.002Z,100392.84
2023-11-01T08:56:09.026Z,100394.66
2023-11-01T08:58:36.218Z,100394.16
2023-11-01T09:01:07.450Z,100396.22
2023-11-01T09:03:35.283Z,100392.09
2023-11-01T09:06:04.606Z,100400.91
2023-11-01T09:08:32.070Z,100404.91
2023-11-01T09:11:02.403Z,100405.91
2023-11-01T09:13:29.540Z,100408.62
2023-11-01T09:15:58.377Z,100409.47
2023-11-01T09:18:26.584Z,100417.97
2023-11-01T09:20:53.923Z,100419.31
2023-11-01T09:23:21.456Z,100423.50
2023-11-01T09:25:49.111Z,100426.47
2023-11-01T09:28:16.404Z,100421.34
2023-11-01T09:30:47.407Z,100426.56
2023-11-01T09:33:16.071Z,100427.50
2023-11-01T09:35:43.637Z,100431.34
2023-11-01T09:38:10.813Z,100438.28
2023-11-01T09:40:38.012Z,100434.66
2023-11-01T09:43:08.521Z,100439.44
2023-11-01T09:45:37.729Z,100451.81
2023-11-01T09:48:07.050Z,100446.50
2023-11-01T09:50:36.693Z,100443.25
2023-11-01T09:53:04.123Z,100458.50
2023-11-01T09:55:31.228Z,100443.22
2023-11-01T09:57:59.710Z,100444.34
2023-11-01T10:00:27.273Z,100446.97
2023-11-01T10:02:55.113Z,100451.63
2023-11-01T10:05:22.544Z,100453.91
2023-11-01T10:07:49.667Z,100439.41
2023-11-01T10:10:18.146Z,100443.22
2023-11-01T10:12:46.176Z,100431.78
2023-11-01T10:15:24.071Z,100433.44
2023-11-01T10:17:55.386Z,100433.69
2023-11-01T10:20:23.869Z,100427.59
2023-11-01T10:22:51.374Z,100422.34
2023-11-01T10:25:20.550Z,100426.13
2023-11-01T10:27:53.599Z,100418.62
2023-11-01T10:30:28.208Z,100430.75
2023-11-01T10:32:59.614Z,100414.03
2023-11-01T10:35:27.813Z,100405.53
2023-11-01T10:38:00.069Z,100412.41
2023-11-01T10:40:30.287Z,100406.78
2023-11-01T10:42:59.892Z,100403.06
2023-11-01T10:45:27.443Z,100397.25
2023-11-01T10:47:55.254Z,100389.97
2023-11-01T10:50:23.919Z,100391.28
2023-11-01T10:52:51.958Z,100390.31
2023-11-01T10:55:41.657Z,100383.88
2023-11-01T10:58:15.545Z,100377.31
2023-11-01T11:00:49.938Z,100378.31
2023-11-01T11:03:32.708Z,100378.47
2023-11-01T11:06:16.280Z,100372.50
2023-11-01T11:09:24.315Z,100359.47
2023-11-01T11:12:21.661Z,100362.94
2023-11-01T11:14:52.673Z,100358.50
2023-11-01T11:17:21.731Z,100353.53
2023-11-01T11:20:12.480Z,100354.56
2023-11-01T11:23:04.277Z,100359.66
2023-11-01T11:25:38.298Z,100345.84
2023-11-01T11:28:20.080Z,100334.25
2023-11-01T11:31:17.020Z,100340.91
2023-11-01T11:33:48.467Z,100339.03
2023-11-01T11:36:18.053Z,100330.47
2023-11-01T11:38:50.843Z,100335.50
2023-11-01T11:41:23.978Z,100326.91
2023-11-01T11:44:07.625Z,100327.56
2023-11-01T11:46:43.267Z,100319.19
2023-11-01T11:49:29.937Z,100316.47
2023-11-01T11:51:59.474Z,100310.63
2023-11-01T11:54:37.018Z,100308.72
2023-11-01T11:57:11.517Z,100309.25
2023-11-01T11:59:40.877Z,100310.63
2023-11-01T12:02:19.312Z,100294.75
2023-11-01T12:04:48.438Z,100299.06
2023-11-01T12:07:22.531Z,100296.88
2023-11-01T12:09:54.108Z,100294.63
2023-11-01T12:12:22.447Z,100297.44
2023-11-01T12:15:02.986Z,100297.22
2023-11-01T12:17:32.562Z,100291.50
2023-11-01T12:20:00.167Z,100287.94
2023-11-01T12:22:27.363Z,100283.25
2023-11-01T12:24:57.093Z,100280.31
2023-11-01T12:27:32.205Z,100276.50
2023-11-01T12:30:01.284Z,100269.12
2023-11-01T12:32:34.773Z,100274.56
2023-11-01T12:35:06.888Z,100274.09
2023-11-01T12:37:36.433Z,100271.50
2023-11-01T12:40:20.132Z,100267.06
2023-11-01T12:42:51.015Z,100260.31
2023-11-01T12:45:21.064Z,100267.47
2023-11-01T12:47:53.809Z,100264.44
2023-11-01T12:50:31.158Z,100266.59
2023-11-01T12:53:00.975Z,100258.88
2023-11-01T12:55:29.168Z,100254.44
2023-11-01T12:57:58.069Z,100247.53
2023-11-01T13:00:26.708Z,100250.59
2023-11-01T13:02:54.388Z,100243.97
2023-11-01T13:05:23.036Z,100239.56
2023-11-01T13:07:52.315Z,100239.03
2023-11-01T13:10:19.612Z,100234.56
2023-11-01T13:12:49.303Z,100241.47
2023-11-01T13:15:17.842Z,100229.34
2023-11-01T13:17:45.608Z,100226.66
2023-11-01T13:20:14.097Z,100228.75
2023-11-01T13:22:41.905Z,100226.19
2023-11-01T13:25:09.241Z,100228.06
2023-11-01T13:27:37.333Z,100232.09
2023-11-01T13:30:07.375Z,100230.47
2023-11-01T13:32:35.055Z,100230.59
2023-11-01T13:35:02.895Z,100231.00
2023-11-01T13:37:33.132Z,100230.81
2023-11-01T13:40:00.752Z,100229.16
2023-11-01T13:42:28.492Z,100222.12
2023-11-01T13:44:57.831Z,100214.03
2023-11-01T13:47:26.554Z,100211.13
2023-11-01T13:49:56.416Z,100216.44
2023-11-01T13:52:24.574Z,100214.06
2023-11-01T13:54:52.216Z,100209.13
2023-11-01T13:57:22.134Z,100209.59
2023-11-01T13:59:49.839Z,100213.34
2023-11-01T14:02:17.614Z,100204.94
2023-11-01T14:04:45.928Z,100212.09
2023-11-01T14:07:13.162Z,100213.06
2023-11-01T14:09:40.747Z,100209.91
2023-11-01T14:12:09.415Z,100211.62
2023-11-01T14:14:38.186Z,100204.81
2023-11-01T14:17:06.268Z,100208.03
2023-11-01T14:19:34.541Z,100213.81
2023-11-01T14:22:01.737Z,100198.66
2023-11-01T14:24:29.483Z,100194.91
2023-11-01T14:26:58.237Z,100200.97
2023-11-01T14:29:26.959Z,100199.47
2023-11-01T14:31:55.199Z,100200.28
2023-11-01T14:34:22.800Z,100189.34
2023-11-01T14:36:55.970Z,100188.91
2023-11-01T14:39:24.070Z,100186.31
2023-11-01T14:41:51.694Z,100181.78
2023-11-01T14:44:19.341Z,100176.06
2023-11-01T14:46:47.349Z,100173.75
2023-11-01T14:49:17.357Z,100173.75
2023-11-01T14:51:45.309Z,100171.38
2023-11-01T14:54:16.273Z,100169.69
2023-11-01T14:56:45.339Z,100168.28
2023-11-01T14:59:14.117Z,100165.47
2023-11-01T15:01:51.957Z,100163.75
2023-11-01T15:04:20.042Z,100169.69
2023-11-01T15:06:50.609Z,100166.53
2023-11-01T15:09:21.033Z,100168.09
2023-11-01T15:11:50.020Z,100166.94
2023-11-01T15:14:17.592Z,100156.19
2023-11-01T15:16:45.236Z,100162.06
2023-11-01T15:19:12.984Z,100149.88
2023-11-01T15:21:45.931Z,100150.31
2023-11-01T15:24:14.935Z,100147.09
2023-11-01T15:26:46.537Z,100142.56
2023-11-01T15:29:14.097Z,100146.09
2023-11-01T15:31:42.112Z,100135.72
2023-11-01T15:34:09.631Z,100141.44
2023-11-01T15:36:38.014Z,100138.63
2023-11-01T15:39:05.788Z,100139.34
2023-11-01T15:41:33.036Z,100142.37
2023-11-01T15:44:00.620Z,100136.25
2023-11-01T15:46:31.352Z,100134.25
2023-11-01T15:48:58.613Z,100139.97
2023-11-01T15:51:27.609Z,100137.66
2023-11-01T15:53:55.659Z,100139.66
2023-11-01T15:56:22.921Z,100135.16
2023-11-01T15:58:51.155Z,100133.31
2023-11-01T16:01:20.854Z,100137.16
2023-11-01T16:03:49.294Z,100140.16
2023-11-01T16:06:19.278Z,100135.41
2023-11-01T16:08:49.209Z,100140.50
2023-11-01T16:11:24.611Z,100133.06
2023-11-01T16:13:56.285Z,100134.41
2023-11-01T16:16:23.980Z,100139.28
2023-11-01T16:18:51.659Z,100132.59
2023-11-01T16:21:18.839Z,100137.53
2023-11-01T16:23:46.798Z,100139.31
2023-11-01T16:26:16.208Z,100141.66
2023-11-01T16:28:43.534Z,100139.78
2023-11-01T16:31:14.182Z,100144.81
2023-11-01T16:33:44.716Z,100133.97
2023-11-01T16:36:13.165Z,100136.47
2023-11-01T16:38:40.424Z,100135.25
2023-11-01T16:41:09.722Z,100126.25
2023-11-01T16:43:42.624Z,100132.81
2023-11-01T16:46:10.309Z,100123.81
2023-11-01T16:48:43.227Z,100126.94
2023-11-01T16:51:12.356Z,100121.25
2023-11-01T16:53:41.070Z,100121.97
2023-11-01T16:56:08.857Z,100117.31
2023-11-01T16:58:37.265Z,100112.22
2023-11-01T17:01:12.981Z,100115.09
2023-11-01T17:03:42.918Z,100111.37
2023-11-01T17:06:11.562Z,100117.03
2023-11-01T17:08:38.812Z,100114.09
2023-11-01T17:11:05.958Z,100110.94
2023-11-01T17:13:36.512Z,100109.19
2023-11-01T17:16:04.101Z,100114.28
2023-11-01T17:18:31.476Z,100108.53
2023-11-01T17:21:01.348Z,100111.13
2023-11-01T17:23:28.626Z,100107.56
2023-11-01T17:26:00.380Z,100110.34
2023-11-01T17:28:35.865Z,100110.16
2023-11-01T17:31:11.397Z,100111.41
2023-11-01T17:33:41.212Z,100113.00
2023-11-01T17:36:21.172Z,100113.00
2023-11-01T17:38:51.615Z,100114.87
2023-11-01T17:41:41.713Z,100120.44
2023-11-01T17:44:12.458Z,100113.12
2023-11-01T17:46:46.975Z,100116.19
2023-11-01T17:49:45.399Z,100109.53
2023-11-01T17:52:27.029Z,100106.84
2023-11-01T17:54:57.627Z,100107.59
2023-11-01T17:57:25.023Z,100105.09
2023-11-01T17:59:58.004Z,100098.03
2023-11-01T18:02:34.041Z,100100.91
2023-11-01T18:05:01.732Z,100109.62
2023-11-01T18:07:29.015Z,100102.41
2023-11-01T18:09:58.225Z,100096.16
2023-11-01T18:12:30.482Z,100088.63
2023-11-01T18:14:58.185Z,100092.00
2023-11-01T18:17:27.685Z,100096.06
2023-11-01T18:19:56.541Z,100091.87
2023-11-01T18:22:42.480Z,100097.25
2023-11-01T18:25:45.757Z,100089.94
2023-11-01T18:28:12.883Z,100091.16
2023-11-01T18:30:45.672Z,100090.69
2023-11-01T18:33:19.997Z,100092.25
2023-11-01T18:35:47.487Z,100082.06
2023-11-01T18:38:47.880Z,100083.44
2023-11-01T18:41:15.430Z,100080.47
2023-11-01T18:43:43.690Z,100092.50
2023-11-01T18:46:13.376Z,100090.28
2023-11-01T18:48:47.359Z,100085.38
2023-11-01T18:51:42.005Z,100092.50
2023-11-01T18:54:17.415Z,100090.72
2023-11-01T18:56:45.065Z,100080.44
2023-11-01T18:59:13.497Z,100088.34
2023-11-01T19:01:42.154Z,100083.88
2023-11-01T19:04:14.411Z,100084.81
2023-11-01T19:06:44.488Z,100090.47
2023-11-01T19:09:15.796Z,100083.41
2023-11-01T19:11:43.980Z,100084.59
2023-11-01T19:14:14.809Z,100082.19
2023-11-01T19:16:43.913Z,100087.53
2023-11-01T19:19:20.155Z,100087.87
2023-11-01T19:21:50.298Z,100092.09
2023-11-01T19:24:29.326Z,100094.50
2023-11-01T19:27:09.509Z,100087.44
2023-11-01T19:29:43.382Z,100081.59
2023-11-01T19:32:11.210Z,100076.31
2023-11-01T19:34:41.104Z,100077.69
2023-11-01T19:37:09.105Z,100078.06
2023-11-01T19:39:42.037Z,100081.16
2023-11-01T19:42:09.992Z,100078.22
2023-11-01T19:44:40.561Z,100075.06
2023-11-01T19:47:11.033Z,100072.62
2023-11-01T19:49:39.458Z,100081.91
2023-11-01T19:52:10.227Z,100079.56
2023-11-01T19:54:39.214Z,100082.62
2023-11-01T19:57:09.900Z,100082.38
2023-11-01T19:59:41.584Z,100076.94
2023-11-01T20:02:10.749Z,100081.63
2023-11-01T20:04:41.816Z,100080.78
2023-11-01T20:07:14.907Z,100072.34
2023-11-01T20:09:43.837Z,100075.44
2023-11-01T20:12:14.485Z,100072.19
2023-11-01T20:14:44.656Z,100065.97
2023-11-01T20:17:17.154Z,100060.87
2023-11-01T20:19:44.848Z,100054.97
2023-11-01T20:22:14.041Z,100059.72
2023-11-01T20:24:43.303Z,100047.69
2023-11-01T20:27:11.053Z,100055.47
2023-11-01T20:29:42.125Z,100052.81
2023-11-01T20:32:09.786Z,100051.53
2023-11-01T20:34:37.555Z,100042.69
2023-11-01T20:37:11.679Z,100039.50
2023-11-01T20:39:56.717Z,100046.69
2023-11-01T20:42:27.751Z,100038.53
2023-11-01T20:44:59.287Z,100038.53
2023-11-01T20:47:27.255Z,100032.16
2023-11-01T20:50:03.256Z,100031.50
2023-11-01T20:52:32.119Z,100023.84
2023-11-01T20:55:02.502Z,100019.63
2023-11-01T20:57:33.485Z,100020.41
2023-11-01T21:00:01.805Z,100020.31
2023-11-01T21:02:30.230Z,100013.47
2023-11-01T21:04:58.872Z,100011.72
2023-11-01T21:07:30.914Z,100013.81
2023-11-01T21:10:04.241Z,100017.31
2023-11-01T21:12:32.641Z,100010.28
2023-11-01T21:15:08.832Z,100013.13
2023-11-01T21:17:37.522Z,100012.19
2023-11-01T21:20:10.698Z,100007.50
2023-11-01T21:22:50.004Z,100000.66
2023-11-01T21:25:18.481Z,100001.50
2023-11-01T21:27:47.549Z,99998.25
2023-11-01T21:30:16.273Z,100003.44
2023-11-01T21:32:44.119Z,99998.69
2023-11-01T21:35:12.381Z,100000.59
2023-11-01T21:37:40.599Z,99989.31
2023-11-01T21:40:08.643Z,99988.38
2023-11-01T21:42:37.103Z,99980.22
2023-11-01T21:45:20.207Z,99980.31
2023-11-01T21:48:07.877Z,99979.88
2023-11-01T21:50:50.237Z,99982.12
2023-11-01T21:53:18.364Z,99987.66
2023-11-01T21:55:56.393Z,99981.41
2023-11-01T21:58:26.547Z,99985.75
2023-11-01T22:01:07.306Z,99984.19
2023-11-01T22:03:42.721Z,99992.91
2023-11-01T22:06:19.610Z,99987.38
2023-11-01T22:09:12.466Z,99985.63
2023-11-01T22:11:44.036Z,99981.38
2023-11-01T22:14:31.235Z,99987.22
2023-11-01T22:17:03.168Z,99978.03
2023-11-01T22:19:42.349Z,99977.84
2023-11-01T22:22:34.734Z,99971.00
2023-11-01T22:25:08.332Z,99964.66
2023-11-01T22:27:39.622Z,99957.91
2023-11-01T22:30:07.800Z,99950.97
2023-11-01T22:32:34.960Z,99953.69
2023-11-01T22:35:02.148Z,99957.22
2023-11-01T22:37:29.723Z,99956.81
2023-11-01T22:39:57.304Z,99949.88
2023-11-01T22:42:32.039Z,99951.97
2023-11-01T22:45:02.398Z,99948.63
2023-11-01T22:47:31.193Z,99949.72
2023-11-01T22:49:58.908Z,99938.44
2023-11-01T22:52:27.292Z,99927.91
2023-11-01T22:54:55.811Z,99924.22
2023-11-01T22:57:22.986Z,99925.75
2023-11-01T22:59:51.593Z,99928.38
2023-11-01T23:02:18.785Z,99922.38
2023-11-01T23:04:45.909Z,99918.91
2023-11-01T23:07:15.504Z,99909.28
2023-11-01T23:09:42.659Z,99914.69
2023-11-01T23:12:12.388Z,99916.38
2023-11-01T23:14:39.891Z,99918.91
2023-11-01T23:17:11.610Z,99905.16
2023-11-01T23:19:39.235Z,99899.06
2023-11-01T23:22:10.295Z,99897.41
2023-11-01T23:24:39.402Z,99894.56
2023-11-01T23:27:07.015Z,99904.66
2023-11-01T23:29:37.414Z,99895.63
2023-11-01T23:32:11.853Z,99886.09
2023-11-01T23:34:49.407Z,99891.78
2023-11-01T23:37:38.076Z,99894.22
2023-11-01T23:40:10.046Z,99890.09
2023-11-01T23:42:38.219Z,99884.94
2023-11-01T23:45:39.552Z,99892.84
2023-11-01T23:48:07.547Z,99881.53
2023-11-01T23:50:36.995Z,99883.31
2023-11-01T23:53:05.735Z,99880.34
2023-11-01T23:55:33.484Z,99874.69
2023-11-01T23:58:01.579Z,99872.84
